createdAt,value
2023-05-19T00:00:09.428Z,99123.97
2023-05-19T00:02:39.788Z,99123.34
2023-05-19T00:05:10.563Z,99119.63
2023-05-19T00:07:40.728Z,99119.72
2023-05-19T00:10:11.998Z,99115.34
2023-05-19T00:12:40.254Z,99111.25
2023-05-19T00:15:10.808Z,99111.25
2023-05-19T00:17:42.595Z,99109.81
2023-05-19T00:20:12.853Z,99108.25
2023-05-19T00:22:41.360Z,99098.44
2023-05-19T00:25:10.244Z,99104.69
2023-05-19T00:27:38.778Z,99087.84
2023-05-19T00:30:08.247Z,99096.97
2023-05-19T00:32:36.778Z,99100.34
2023-05-19T00:35:07.086Z,99110.03
2023-05-19T00:37:35.151Z,99100.72
2023-05-19T00:40:05.728Z,99064.34
2023-05-19T00:42:33.936Z,99093.81
2023-05-19T00:45:01.918Z,99104.22
2023-05-19T00:47:29.957Z,99092.34
2023-05-19T00:49:58.010Z,99098.13
2023-05-19T00:52:28.011Z,99035.94
2023-05-19T00:54:57.260Z,99070.31
2023-05-19T00:57:26.130Z,99088.03
2023-05-19T00:59:54.282Z,99086.97
2023-05-19T01:02:22.588Z,99088.06
2023-05-19T01:04:51.951Z,99086.13
2023-05-19T01:07:21.249Z,99076.66
2023-05-19T01:09:50.889Z,99074.84
2023-05-19T01:12:19.351Z,99075.69
2023-05-19T01:14:47.427Z,99069.78
2023-05-19T01:17:23.273Z,99066.59
2023-05-19T01:20:08.161Z,99072.78
2023-05-19T01:22:55.117Z,99031.59
2023-05-19T01:25:44.317Z,99065.16
2023-05-19T01:28:46.879Z,99063.88
2023-05-19T01:31:18.252Z,99069.22
2023-05-19T01:33:47.753Z,99068.47
2023-05-19T01:36:16.593Z,99071.47
2023-05-19T01:38:45.397Z,99069.22
2023-05-19T01:41:14.205Z,99068.75
2023-05-19T01:43:42.549Z,99076.09
2023-05-19T01:46:11.269Z,99055.19
2023-05-19T01:48:40.840Z,99064.41
2023-05-19T01:51:08.859Z,99049.56
2023-05-19T01:53:36.898Z,99074.44
2023-05-19T01:56:06.789Z,99069.97
2023-05-19T01:58:42.918Z,99067.97
2023-05-19T02:01:21.860Z,99066.81
2023-05-19T02:04:19.860Z,99065.97
2023-05-19T02:06:56.248Z,99050.34
2023-05-19T02:09:29.702Z,99064.91
2023-05-19T02:12:04.451Z,99065.13
2023-05-19T02:14:36.735Z,99065.13
2023-05-19T02:17:06.464Z,99069.34
2023-05-19T02:19:38.176Z,99058.94
2023-05-19T02:22:07.119Z,99034.22
2023-05-19T02:24:35.197Z,99067.44
2023-05-19T02:27:03.317Z,99076.47
2023-05-19T02:29:31.337Z,99071.88
2023-05-19T02:32:00.150Z,99065.81
2023-05-19T02:34:28.256Z,99065.41
2023-05-19T02:36:57.863Z,99065.13
2023-05-19T02:39:26.476Z,99066.56
2023-05-19T02:41:54.483Z,99067.97
2023-05-19T02:44:22.457Z,99063.91
2023-05-19T02:46:50.534Z,99062.50
2023-05-19T02:49:18.592Z,99067.53
2023-05-19T02:51:46.599Z,99066.56
2023-05-19T02:54:15.933Z,99062.88
2023-05-19T02:56:43.941Z,99060.19
2023-05-19T02:59:11.938Z,99062.00
2023-05-19T03:01:40.594Z,99042.81
2023-05-19T03:04:08.744Z,99057.41
2023-05-19T03:06:36.801Z,99054.53
2023-05-19T03:09:04.931Z,99057.00
2023-05-19T03:11:34.308Z,99042.16
2023-05-19T03:14:03.057Z,99037.19
2023-05-19T03:16:31.589Z,99060.28
2023-05-19T03:19:00.293Z,99057.34
2023-05-19T03:21:28.410Z,99060.66
2023-05-19T03:23:56.432Z,99056.50
2023-05-19T03:26:24.672Z,99060.31
2023-05-19T03:28:54.380Z,99057.81
2023-05-19T03:31:22.396Z,99063.13
2023-05-19T03:33:50.443Z,99059.47
2023-05-19T03:36:18.689Z,99061.59
2023-05-19T03:38:46.697Z,99063.84
2023-05-19T03:41:14.770Z,99061.53
2023-05-19T03:43:42.818Z,99036.16
2023-05-19T03:46:12.197Z,99061.91
2023-05-19T03:48:40.176Z,99062.88
2023-05-19T03:51:09.174Z,99054.06
2023-05-19T03:53:38.048Z,99073.09
2023-05-19T03:56:07.699Z,99065.34
2023-05-19T03:58:37.109Z,99062.88
2023-05-19T04:01:05.104Z,99069.91
2023-05-19T04:03:34.464Z,99066.31
2023-05-19T04:06:02.527Z,99068.97
2023-05-19T04:08:30.489Z,99073.31
2023-05-19T04:10:58.533Z,99061.84
2023-05-19T04:13:26.523Z,99073.53
2023-05-19T04:15:54.636Z,99076.09
2023-05-19T04:18:22.667Z,99069.81
2023-05-19T04:20:52.403Z,99079.16
2023-05-19T04:23:20.371Z,99077.53
2023-05-19T04:25:48.846Z,99078.84
2023-05-19T04:28:18.014Z,99068.19
2023-05-19T04:30:46.802Z,99080.09
2023-05-19T04:33:14.927Z,99087.53
2023-05-19T04:35:43.922Z,99081.41
2023-05-19T04:38:13.299Z,99070.22
2023-05-19T04:40:42.341Z,99056.84
2023-05-19T04:43:11.537Z,99080.72
2023-05-19T04:45:42.727Z,99043.50
2023-05-19T04:48:10.831Z,99078.50
2023-05-19T04:50:42.308Z,99077.13
2023-05-19T04:53:11.600Z,99064.72
2023-05-19T04:55:41.014Z,99058.75
2023-05-19T04:58:09.148Z,99084.03
2023-05-19T05:00:38.999Z,99083.09
2023-05-19T05:03:08.158Z,99087.00
2023-05-19T05:05:36.321Z,99085.41
2023-05-19T05:08:04.539Z,99070.00
2023-05-19T05:10:32.935Z,99092.19
2023-05-19T05:13:03.181Z,99084.88
2023-05-19T05:15:31.756Z,99084.44
2023-05-19T05:18:00.479Z,99082.75
2023-05-19T05:20:29.623Z,99093.59
2023-05-19T05:22:59.227Z,99087.63
2023-05-19T05:25:28.712Z,99096.22
2023-05-19T05:27:59.300Z,99060.31
2023-05-19T05:30:28.684Z,99097.78
2023-05-19T05:32:57.562Z,99096.81
2023-05-19T05:35:26.412Z,99089.66
2023-05-19T05:37:55.247Z,99096.19
2023-05-19T05:40:23.447Z,99098.63
2023-05-19T05:42:51.439Z,99082.47
2023-05-19T05:45:19.556Z,99101.84
2023-05-19T05:47:49.658Z,99100.44
2023-05-19T05:50:18.785Z,99098.31
2023-05-19T05:52:48.445Z,99100.59
2023-05-19T05:55:18.544Z,99102.44
2023-05-19T05:57:49.032Z,99100.91
2023-05-19T06:00:18.055Z,99101.16
2023-05-19T06:02:47.698Z,99098.00
2023-05-19T06:05:17.425Z,99094.88
2023-05-19T06:07:51.495Z,99067.50
2023-05-19T06:10:20.285Z,99103.31
2023-05-19T06:12:49.190Z,99103.97
2023-05-19T06:15:17.994Z,99096.81
2023-05-19T06:17:46.083Z,99089.19
2023-05-19T06:20:16.391Z,99102.38
2023-05-19T06:22:44.344Z,99104.31
2023-05-19T06:25:12.340Z,99098.50
2023-05-19T06:27:40.302Z,99093.28
2023-05-19T06:30:09.760Z,99087.81
2023-05-19T06:32:37.773Z,99091.66
2023-05-19T06:35:06.818Z,99091.63
2023-05-19T06:37:36.176Z,99085.72
2023-05-19T06:40:05.718Z,99086.19
2023-05-19T06:42:33.681Z,99089.28
2023-05-19T06:45:01.610Z,99086.00
2023-05-19T06:47:29.635Z,99088.00
2023-05-19T06:50:00.698Z,99080.78
2023-05-19T06:52:28.772Z,99089.47
2023-05-19T06:54:58.115Z,99079.94
2023-05-19T06:57:26.106Z,99087.03
2023-05-19T06:59:54.158Z,99084.38
2023-05-19T07:02:22.137Z,99072.47
2023-05-19T07:04:51.504Z,99090.78
2023-05-19T07:07:19.541Z,99086.78
2023-05-19T07:09:47.547Z,99090.44
2023-05-19T07:12:16.911Z,99087.38
2023-05-19T07:14:46.180Z,99082.63
2023-05-19T07:17:14.915Z,99085.78
2023-05-19T07:19:46.284Z,99085.69
2023-05-19T07:22:15.001Z,99085.16
2023-05-19T07:24:43.011Z,99037.22
2023-05-19T07:27:11.036Z,99081.25
2023-05-19T07:29:40.423Z,99079.69
2023-05-19T07:32:08.754Z,99083.34
2023-05-19T07:34:36.889Z,99081.41
2023-05-19T07:37:05.047Z,99082.19
2023-05-19T07:39:33.046Z,99071.72
2023-05-19T07:42:01.025Z,99062.09
2023-05-19T07:44:31.382Z,99061.34
2023-05-19T07:47:00.859Z,99059.94
2023-05-19T07:49:30.001Z,99058.84
2023-05-19T07:51:58.758Z,99058.31
2023-05-19T07:54:27.537Z,99059.81
2023-05-19T07:56:55.518Z,99058.31
2023-05-19T07:59:24.393Z,99057.34
2023-05-19T08:01:52.370Z,99043.34
2023-05-19T08:04:21.776Z,99055.22
2023-05-19T08:06:49.834Z,99048.16
2023-05-19T08:09:17.765Z,99054.34
2023-05-19T08:11:46.983Z,99031.25
2023-05-19T08:14:14.916Z,99020.22
2023-05-19T08:16:44.026Z,99035.38
2023-05-19T08:19:11.992Z,99039.28
2023-05-19T08:21:42.536Z,99041.31
2023-05-19T08:24:10.520Z,99034.09
2023-05-19T08:26:38.526Z,99034.84
2023-05-19T08:29:06.485Z,99032.63
2023-05-19T08:31:34.859Z,99029.13
2023-05-19T08:34:03.626Z,99031.00
2023-05-19T08:36:31.724Z,99023.06
2023-05-19T08:39:01.095Z,99024.03
2023-05-19T08:41:29.023Z,99033.41
2023-05-19T08:43:57.026Z,99033.72
2023-05-19T08:46:26.806Z,99032.75
2023-05-19T08:49:00.132Z,99017.97
2023-05-19T08:51:34.895Z,99021.34
2023-05-19T08:54:14.017Z,99019.69
2023-05-19T08:56:44.400Z,99021.16
2023-05-19T08:59:14.517Z,99017.53
2023-05-19T09:01:45.845Z,99016.44
2023-05-19T09:04:14.513Z,99015.59
2023-05-19T09:06:45.318Z,98998.44
2023-05-19T09:09:15.631Z,99014.25
2023-05-19T09:11:47.234Z,99006.28
2023-05-19T09:14:15.218Z,99010.88
2023-05-19T09:16:43.551Z,99010.69
2023-05-19T09:19:16.562Z,99006.69
2023-05-19T09:21:45.935Z,99006.06
2023-05-19T09:24:15.365Z,99002.94
2023-05-19T09:26:44.165Z,99000.81
2023-05-19T09:29:13.016Z,98990.03
2023-05-19T09:31:41.103Z,98988.50
2023-05-19T09:34:14.116Z,98991.69
2023-05-19T09:36:42.653Z,98981.53
2023-05-19T09:39:18.559Z,98995.84
2023-05-19T09:41:46.859Z,98988.03
2023-05-19T09:44:22.492Z,98988.31
2023-05-19T09:46:50.779Z,98997.19
2023-05-19T09:49:22.986Z,98995.00
2023-05-19T09:51:52.330Z,98997.47
2023-05-19T09:54:23.844Z,98996.03
2023-05-19T09:57:00.018Z,98996.38
2023-05-19T09:59:31.512Z,98987.97
2023-05-19T10:02:02.502Z,98992.38
2023-05-19T10:04:31.737Z,98983.56
2023-05-19T10:07:00.636Z,98989.69
2023-05-19T10:09:31.136Z,98984.59
2023-05-19T10:12:00.288Z,98996.31
2023-05-19T10:14:29.938Z,98992.19
2023-05-19T10:16:59.254Z,98975.69
2023-05-19T10:19:29.931Z,98979.75
2023-05-19T10:21:58.721Z,98989.16
2023-05-19T10:24:27.468Z,98973.16
2023-05-19T10:27:02.620Z,98971.91
2023-05-19T10:29:34.573Z,98970.84
2023-05-19T10:32:10.037Z,98970.50
2023-05-19T10:34:59.425Z,98969.44
2023-05-19T10:37:35.891Z,98971.63
2023-05-19T10:40:10.814Z,98966.50
2023-05-19T10:42:53.374Z,98963.16
2023-05-19T10:45:24.002Z,98962.66
2023-05-19T10:47:52.563Z,98959.28
2023-05-19T10:50:21.766Z,98951.88
2023-05-19T10:52:55.750Z,98962.97
2023-05-19T10:55:49.023Z,98967.03
2023-05-19T10:58:38.318Z,98966.19
2023-05-19T11:01:10.035Z,98966.00
2023-05-19T11:03:49.553Z,98964.34
2023-05-19T11:06:28.407Z,98946.78
2023-05-19T11:08:58.945Z,98966.28
2023-05-19T11:11:26.934Z,98966.78
2023-05-19T11:13:57.304Z,98959.25
2023-05-19T11:16:29.746Z,98967.84
2023-05-19T11:19:00.190Z,98960.06
2023-05-19T11:21:43.115Z,98968.00
2023-05-19T11:24:11.426Z,98965.00
2023-05-19T11:26:43.708Z,98952.72
2023-05-19T11:29:13.618Z,98941.03
2023-05-19T11:31:44.775Z,98961.78
2023-05-19T11:34:13.957Z,98955.75
2023-05-19T11:36:44.015Z,98958.09
2023-05-19T11:39:13.637Z,98952.84
2023-05-19T11:41:41.778Z,98947.78
2023-05-19T11:44:13.092Z,98946.31
2023-05-19T11:46:41.139Z,98945.13
2023-05-19T11:49:09.247Z,98939.94
2023-05-19T11:51:38.498Z,98938.22
2023-05-19T11:54:06.719Z,98938.91
2023-05-19T11:56:35.969Z,98933.69
2023-05-19T11:59:03.952Z,98935.19
2023-05-19T12:01:34.089Z,98935.38
2023-05-19T12:04:02.346Z,98945.13
2023-05-19T12:06:31.200Z,98936.03
2023-05-19T12:09:00.115Z,98929.97
2023-05-19T12:11:29.598Z,98940.94
2023-05-19T12:14:00.005Z,98931.00
2023-05-19T12:16:36.032Z,98933.00
2023-05-19T12:19:07.251Z,98940.28
2023-05-19T12:21:35.581Z,98933.31
2023-05-19T12:24:04.179Z,98936.13
2023-05-19T12:26:32.176Z,98925.53
2023-05-19T12:29:00.303Z,98930.47
2023-05-19T12:31:28.437Z,98933.69
2023-05-19T12:33:58.606Z,98933.16
2023-05-19T12:36:27.256Z,98934.09
2023-05-19T12:38:56.240Z,98933.94
2023-05-19T12:41:27.554Z,98920.97
2023-05-19T12:43:59.464Z,98931.84
2023-05-19T12:46:27.663Z,98929.63
2023-05-19T12:49:26.731Z,98930.31
2023-05-19T12:51:56.774Z,98927.41
2023-05-19T12:54:25.196Z,98917.66
2023-05-19T12:56:54.008Z,98910.44
2023-05-19T12:59:37.433Z,98925.75
2023-05-19T13:02:06.374Z,98923.25
2023-05-19T13:04:34.580Z,98922.22
2023-05-19T13:07:04.043Z,98915.81
2023-05-19T13:09:35.157Z,98919.88
2023-05-19T13:12:04.873Z,98903.06
2023-05-19T13:14:32.923Z,98918.53
2023-05-19T13:17:00.987Z,98909.97
2023-05-19T13:19:29.279Z,98912.81
2023-05-19T13:21:57.519Z,98898.38
2023-05-19T13:24:27.034Z,98912.16
2023-05-19T13:26:56.103Z,98899.53
2023-05-19T13:29:24.183Z,98891.97
2023-05-19T13:31:52.176Z,98900.69
2023-05-19T13:34:21.388Z,98895.81
2023-05-19T13:36:49.655Z,98903.56
2023-05-19T13:39:20.480Z,98906.44
2023-05-19T13:41:50.691Z,98897.66
2023-05-19T13:44:20.060Z,98898.19
2023-05-19T13:46:49.856Z,98901.19
2023-05-19T13:49:20.855Z,98900.50
2023-05-19T13:51:49.064Z,98896.50
2023-05-19T13:54:19.234Z,98890.28
2023-05-19T13:56:53.095Z,98907.44
2023-05-19T13:59:21.816Z,98905.75
2023-05-19T14:01:49.944Z,98902.72
2023-05-19T14:04:19.514Z,98896.50
2023-05-19T14:06:47.887Z,98906.44
2023-05-19T14:09:16.521Z,98909.09
2023-05-19T14:11:44.574Z,98911.00
2023-05-19T14:14:13.978Z,98879.72
2023-05-19T14:16:42.441Z,98900.00
2023-05-19T14:19:11.356Z,98896.47
2023-05-19T14:21:39.478Z,98902.34
2023-05-19T14:24:08.046Z,98893.22
2023-05-19T14:26:36.095Z,98898.81
2023-05-19T14:29:04.859Z,98897.84
2023-05-19T14:31:34.515Z,98895.75
2023-05-19T14:34:02.556Z,98895.59
2023-05-19T14:36:31.923Z,98893.09
2023-05-19T14:39:00.425Z,98902.16
2023-05-19T14:41:29.984Z,98904.00
2023-05-19T14:43:58.208Z,98908.56
2023-05-19T14:46:27.392Z,98906.16
2023-05-19T14:48:57.142Z,98910.16
2023-05-19T14:51:25.139Z,98901.38
2023-05-19T14:53:53.149Z,98894.94
2023-05-19T14:56:23.150Z,98906.84
2023-05-19T14:58:52.045Z,98906.47
2023-05-19T15:01:20.096Z,98910.63
2023-05-19T15:03:48.177Z,98907.78
2023-05-19T15:06:17.624Z,98901.69
2023-05-19T15:08:46.022Z,98902.06
2023-05-19T15:11:14.018Z,98900.63
2023-05-19T15:13:42.064Z,98899.59
2023-05-19T15:16:17.734Z,98892.38
2023-05-19T15:18:46.625Z,98893.00
2023-05-19T15:21:14.683Z,98888.81
2023-05-19T15:23:44.102Z,98900.66
2023-05-19T15:26:12.509Z,98890.59
2023-05-19T15:28:40.771Z,98896.78
2023-05-19T15:31:08.795Z,98897.88
2023-05-19T15:33:36.961Z,98886.19
2023-05-19T15:36:05.325Z,98891.13
2023-05-19T15:38:37.426Z,98901.34
2023-05-19T15:41:12.876Z,98891.47
2023-05-19T15:43:41.596Z,98898.22
2023-05-19T15:46:09.637Z,98897.50
2023-05-19T15:48:37.683Z,98899.59
2023-05-19T15:51:06.096Z,98898.69
2023-05-19T15:53:34.086Z,98898.38
2023-05-19T15:56:03.334Z,98887.59
2023-05-19T15:58:34.047Z,98890.19
2023-05-19T16:01:06.198Z,98892.59
2023-05-19T16:03:37.573Z,98893.91
2023-05-19T16:06:12.254Z,98898.88
2023-05-19T16:08:40.351Z,98908.59
2023-05-19T16:11:11.257Z,98889.78
2023-05-19T16:13:41.138Z,98888.38
2023-05-19T16:16:09.396Z,98885.84
2023-05-19T16:18:37.804Z,98891.06
2023-05-19T16:21:06.622Z,98897.19
2023-05-19T16:23:34.676Z,98891.44
2023-05-19T16:26:02.731Z,98881.56
2023-05-19T16:28:30.676Z,98886.50
2023-05-19T16:31:01.609Z,98886.09
2023-05-19T16:33:30.334Z,98887.25
2023-05-19T16:36:05.409Z,98890.69
2023-05-19T16:38:40.682Z,98887.16
2023-05-19T16:41:22.433Z,98885.09
2023-05-19T16:43:53.620Z,98869.28
2023-05-19T16:46:25.610Z,98891.63
2023-05-19T16:48:55.344Z,98885.63
2023-05-19T16:51:31.998Z,98899.09
2023-05-19T16:54:04.312Z,98893.47
2023-05-19T16:56:41.528Z,98899.97
2023-05-19T16:59:28.434Z,98898.59
2023-05-19T17:02:01.177Z,98897.84
2023-05-19T17:04:31.169Z,98899.91
2023-05-19T17:07:03.595Z,98904.44
2023-05-19T17:09:50.855Z,98906.78
2023-05-19T17:12:24.266Z,98899.22
2023-05-19T17:14:54.281Z,98899.13
2023-05-19T17:17:25.358Z,98894.09
2023-05-19T17:20:00.189Z,98908.84
2023-05-19T17:22:31.282Z,98909.72
2023-05-19T17:25:00.840Z,98909.88
2023-05-19T17:27:29.455Z,98913.53
2023-05-19T17:30:00.840Z,98911.69
2023-05-19T17:32:36.992Z,98909.72
2023-05-19T17:35:07.069Z,98897.06
2023-05-19T17:37:37.849Z,98903.56
2023-05-19T17:40:11.204Z,98909.88
2023-05-19T17:42:39.846Z,98887.69
2023-05-19T17:45:12.998Z,98897.56
2023-05-19T17:47:44.226Z,98903.31
2023-05-19T17:50:15.445Z,98902.47
2023-05-19T17:52:45.859Z,98901.06
2023-05-19T17:55:19.008Z,98904.19
2023-05-19T17:57:48.117Z,98892.06
2023-05-19T18:00:18.079Z,98888.97
2023-05-19T18:02:51.436Z,98900.94
2023-05-19T18:05:22.196Z,98903.19
2023-05-19T18:07:54.446Z,98900.41
2023-05-19T18:10:31.068Z,98904.75
2023-05-19T18:13:00.759Z,98896.59
2023-05-19T18:15:32.044Z,98891.66
2023-05-19T18:18:03.426Z,98911.38
2023-05-19T18:20:34.209Z,98914.47
2023-05-19T18:23:03.763Z,98920.81
2023-05-19T18:25:31.798Z,98919.53
2023-05-19T18:27:59.743Z,98907.72
2023-05-19T18:30:27.808Z,98900.13
2023-05-19T18:32:55.845Z,98913.50
2023-05-19T18:35:25.284Z,98911.53
2023-05-19T18:37:56.540Z,98909.69
2023-05-19T18:40:25.023Z,98917.47
2023-05-19T18:42:53.046Z,98914.75
2023-05-19T18:45:21.093Z,98909.28
2023-05-19T18:47:52.089Z,98894.53
2023-05-19T18:50:20.766Z,98913.81
2023-05-19T18:52:50.148Z,98915.78
2023-05-19T18:55:18.271Z,98903.94
2023-05-19T18:57:46.227Z,98914.63
2023-05-19T19:00:15.103Z,98903.94
2023-05-19T19:02:43.167Z,98900.56
2023-05-19T19:05:11.341Z,98889.31
2023-05-19T19:07:42.300Z,98893.81
2023-05-19T19:10:12.793Z,98906.91
2023-05-19T19:12:40.776Z,98903.81
2023-05-19T19:15:09.696Z,98910.81
2023-05-19T19:17:40.268Z,98915.19
2023-05-19T19:20:10.008Z,98918.13
2023-05-19T19:22:38.180Z,98923.06
2023-05-19T19:25:06.969Z,98920.81
2023-05-19T19:27:36.335Z,98930.38
2023-05-19T19:30:07.986Z,98924.16
2023-05-19T19:32:36.210Z,98926.44
2023-05-19T19:35:04.392Z,98929.03
2023-05-19T19:37:32.384Z,98932.69
2023-05-19T19:40:03.332Z,98935.09
2023-05-19T19:42:33.577Z,98937.34
2023-05-19T19:45:03.912Z,98927.72
2023-05-19T19:47:37.450Z,98929.13
2023-05-19T19:50:10.146Z,98937.69
2023-05-19T19:52:38.377Z,98944.53
2023-05-19T19:55:07.464Z,98931.84
2023-05-19T19:57:35.813Z,98943.69
2023-05-19T20:00:08.364Z,98937.19
2023-05-19T20:02:41.071Z,98918.56
2023-05-19T20:05:14.319Z,98944.06
2023-05-19T20:07:42.290Z,98951.38
2023-05-19T20:10:12.606Z,98944.66
2023-05-19T20:12:44.983Z,98931.41
2023-05-19T20:15:18.823Z,98943.69
2023-05-19T20:17:47.449Z,98954.09
2023-05-19T20:20:16.884Z,98946.63
2023-05-19T20:22:46.526Z,98945.09
2023-05-19T20:25:15.777Z,98957.34
2023-05-19T20:27:44.950Z,98949.03
2023-05-19T20:30:15.674Z,98945.19
2023-05-19T20:32:44.163Z,98950.81
2023-05-19T20:35:18.376Z,98941.09
2023-05-19T20:37:48.196Z,98935.59
2023-05-19T20:40:16.937Z,98939.41
2023-05-19T20:42:45.628Z,98920.22
2023-05-19T20:45:16.145Z,98942.50
2023-05-19T20:47:45.130Z,98936.13
2023-05-19T20:50:16.422Z,98926.44
2023-05-19T20:52:44.455Z,98917.69
2023-05-19T20:55:13.507Z,98943.59
2023-05-19T20:57:44.050Z,98926.69
2023-05-19T21:00:13.462Z,98936.63
2023-05-19T21:02:46.143Z,98931.44
2023-05-19T21:05:14.909Z,98940.41
2023-05-19T21:07:44.066Z,98933.13
2023-05-19T21:10:14.285Z,98932.56
2023-05-19T21:12:42.605Z,98941.00
2023-05-19T21:15:11.508Z,98938.34
2023-05-19T21:17:39.828Z,98926.34
2023-05-19T21:20:14.724Z,98937.63
2023-05-19T21:22:44.565Z,98927.75
2023-05-19T21:25:12.873Z,98933.91
2023-05-19T21:27:40.989Z,98929.41
2023-05-19T21:30:10.843Z,98924.81
2023-05-19T21:32:39.726Z,98926.06
2023-05-19T21:35:11.706Z,98912.09
2023-05-19T21:37:39.928Z,98915.91
2023-05-19T21:40:10.439Z,98903.47
2023-05-19T21:42:39.582Z,98923.72
2023-05-19T21:45:09.876Z,98898.81
2023-05-19T21:47:38.122Z,98919.44
2023-05-19T21:50:07.460Z,98866.44
2023-05-19T21:52:39.979Z,98915.16
2023-05-19T21:55:11.225Z,98911.44
2023-05-19T21:57:41.201Z,98909.41
2023-05-19T22:00:15.970Z,98895.88
2023-05-19T22:02:45.490Z,98904.72
2023-05-19T22:05:13.920Z,98885.25
2023-05-19T22:07:51.569Z,98889.56
2023-05-19T22:10:19.798Z,98888.25
2023-05-19T22:12:48.538Z,98896.19
2023-05-19T22:15:17.023Z,98884.34
2023-05-19T22:17:45.177Z,98892.31
2023-05-19T22:20:14.150Z,98891.81
2023-05-19T22:22:43.654Z,98877.91
2023-05-19T22:25:11.899Z,98871.84
2023-05-19T22:27:41.013Z,98883.81
2023-05-19T22:30:13.406Z,98864.16
2023-05-19T22:32:42.860Z,98879.97
2023-05-19T22:35:15.988Z,98879.53
2023-05-19T22:37:46.180Z,98870.13
2023-05-19T22:40:14.629Z,98875.06
2023-05-19T22:42:42.848Z,98874.97
2023-05-19T22:45:12.516Z,98879.81
2023-05-19T22:47:41.503Z,98871.69
2023-05-19T22:50:11.405Z,98871.56
2023-05-19T22:52:40.324Z,98869.88
2023-05-19T22:55:10.972Z,98872.75
2023-05-19T22:57:43.428Z,98881.47
2023-05-19T23:00:14.693Z,98870.63
2023-05-19T23:02:45.966Z,98859.47
2023-05-19T23:05:14.887Z,98864.91
2023-05-19T23:07:43.142Z,98855.22
2023-05-19T23:10:13.857Z,98852.53
2023-05-19T23:12:42.064Z,98858.31
2023-05-19T23:15:11.193Z,98853.59
2023-05-19T23:17:39.793Z,98847.94
2023-05-19T23:20:09.704Z,98846.44
2023-05-19T23:22:38.213Z,98827.72
2023-05-19T23:25:07.993Z,98845.16
2023-05-19T23:27:37.829Z,98817.38
2023-05-19T23:30:07.009Z,98821.69
2023-05-19T23:32:35.045Z,98834.63
2023-05-19T23:35:11.640Z,98832.28
2023-05-19T23:37:39.630Z,98833.72
2023-05-19T23:40:09.169Z,98835.63
2023-05-19T23:42:38.705Z,98811.53
2023-05-19T23:45:08.336Z,98818.56
2023-05-19T23:47:37.074Z,98817.75
2023-05-19T23:50:05.620Z,98823.31
2023-05-19T23:52:33.906Z,98824.28
2023-05-19T23:55:03.413Z,98818.28
2023-05-19T23:57:31.456Z,98821.50
